Sbi Maduro — V7KY6 — position and weather

sailwx.info

Track history (hours):
 
Tides and Currents Weather Stations Pressure Air Temp Water Temp Dewpoint Dewpoint Depression Visibility Wind Speed Wind Dir Waves Ship Positions

Sbi Maduro

Last reported at 2018-Jul-05 01:30 UTC. Time now 2018-Jul-16 19:44 UTC.
Position N 04°53' W 000°41'.
Warning: this ship's position is 11 days out of date.

Length 292 m; draft 6 m.

Type: Cargo ship. MMSI: 538006241.

Date/timePositionNaut miles runAvg speedWind from/ knotsBaromVisibWave heightAir tempDewpointWater temp
2018-Jul-05 01:30N 04°53' W 000°41'611.4
2018-Jul-05 00:58N 04°55' W 000°35'1711.5
2018-Jul-04 23:32N 05°02' W 000°20'111.4
2018-Jul-04 23:27N 05°02' W 000°19'511.4
2018-Jul-04 23:01N 05°04' W 000°15'611.3
2018-Jul-04 22:30N 05°06' W 000°09'611.3
2018-Jul-04 22:00N 05°08' W 000°04'611.1
2018-Jul-04 21:30N 05°10' E 000°01'511.1
2018-Jul-04 21:01N 05°12' E 000°06'611.0
2018-Jul-04 20:31N 05°13' E 000°12'611.2
2018-Jul-04 20:01N 05°16' E 000°16'611.1
2018-Jul-04 19:31N 05°20' E 000°21'611.1
2018-Jul-04 19:00N 05°23' E 000°26'611.2
2018-Jul-04 18:31N 05°25' E 000°31'611.2
2018-Jul-04 18:00N 05°27' E 000°36'1411.1
2018-Jul-04 16:45N 05°33' E 000°49'43 2.6
2018-Jul-04 00:14N 06°05' E 001°17'0 0.0
2018-Jul-03 23:56N 06°05' E 001°17'0 0.0
2018-Jul-03 19:23N 06°05' E 001°17'  
Track history (hours):
 
Tides and Currents Weather Stations Pressure Air Temp Water Temp Dewpoint Dewpoint Depression Visibility Wind Speed Wind Dir Waves Ship Positions

Sbi Maduro

Last reported at 2018-Jul-05 01:30 UTC. Time now 2018-Jul-16 19:44 UTC.
Position N 04°53' W 000°41'.
Warning: this ship's position is 11 days out of date.

Length 292 m; draft 6 m.

Type: Cargo ship. MMSI: 538006241.

Date/timePositionNaut miles runAvg speedWind from/ knotsBaromVisibWave heightAir tempDewpointWater temp
2018-Jul-05 01:30N 04°53' W 000°41'611.4
2018-Jul-05 00:58N 04°55' W 000°35'1711.5
2018-Jul-04 23:32N 05°02' W 000°20'111.4
2018-Jul-04 23:27N 05°02' W 000°19'511.4
2018-Jul-04 23:01N 05°04' W 000°15'611.3
2018-Jul-04 22:30N 05°06' W 000°09'611.3
2018-Jul-04 22:00N 05°08' W 000°04'611.1
2018-Jul-04 21:30N 05°10' E 000°01'511.1
2018-Jul-04 21:01N 05°12' E 000°06'611.0
2018-Jul-04 20:31N 05°13' E 000°12'611.2
2018-Jul-04 20:01N 05°16' E 000°16'611.1
2018-Jul-04 19:31N 05°20' E 000°21'611.1
2018-Jul-04 19:00N 05°23' E 000°26'611.2
2018-Jul-04 18:31N 05°25' E 000°31'611.2
2018-Jul-04 18:00N 05°27' E 000°36'1411.1
2018-Jul-04 16:45N 05°33' E 000°49'43 2.6
2018-Jul-04 00:14N 06°05' E 001°17'0 0.0
2018-Jul-03 23:56N 06°05' E 001°17'0 0.0
2018-Jul-03 19:23N 06°05' E 001°17'  

Dump ship's entire track history